Time;durP1;ratioP1;P1;durP2;ratioP2;P2;SDS_P1;SDS_P2;PMS_P1;PMS_P2;Temp;Humidity;BMP_temperature;BMP_pressure;BME280_temperature;BME280_humidity;BME280_pressure;Samples;Min_cycle;Max_cycle;Signal;HPM_P1;HPM_P2
2022/01/01 00:03:04;;;;;;;5.97;5.43;;;;;;;;;;6295504;28;20197;-80
2022/01/01 00:06:12;;;;;;;5.57;5.07;;;;;;;;;;6294457;28;20197;-80
2022/01/01 00:09:16;;;;;;;7.17;4.80;;;;;;;;;;6295271;28;20192;-80
2022/01/01 00:12:21;;;;;;;6.23;5.03;;;;;;;;;;6295716;28;20187;-80
2022/01/01 00:15:25;;;;;;;5.30;4.80;;;;;;;;;;6296680;28;20195;-80
2022/01/01 00:18:31;;;;;;;6.07;5.03;;;;;;;;;;6300360;28;20184;-80
2022/01/01 00:21:35;;;;;;;5.40;4.90;;;;;;;;;;6298894;28;20210;-82
2022/01/01 00:24:40;;;;;;;5.63;4.93;;;;;;;;;;6300267;28;20222;-80
2022/01/01 00:27:44;;;;;;;6.27;5.50;;;;;;;;;;6300858;28;20195;-80
2022/01/01 00:30:48;;;;;;;7.20;6.40;;;;;;;;;;6301286;28;20188;-82
2022/01/01 00:33:53;;;;;;;7.13;5.83;;;;;;;;;;6301236;28;20216;-80
2022/01/01 00:36:58;;;;;;;7.23;6.00;;;;;;;;;;6300751;28;20349;-81
2022/01/01 00:40:03;;;;;;;11.53;6.57;;;;;;;;;;6305762;28;20175;-80
2022/01/01 00:43:07;;;;;;;7.73;6.07;;;;;;;;;;6306732;28;20216;-80
2022/01/01 00:46:11;;;;;;;12.80;7.13;;;;;;;;;;6306299;28;20358;-80
2022/01/01 00:49:17;;;;;;;8.03;6.60;;;;;;;;;;6306837;28;20185;-80
2022/01/01 00:52:21;;;;;;;11.37;6.57;;;;;;;;;;6306485;28;20188;-80
2022/01/01 00:55:26;;;;;;;8.63;6.90;;;;;;;;;;6305968;28;20226;-80
2022/01/01 00:58:30;;;;;;;8.40;6.03;;;;;;;;;;6305489;28;20262;-80
2022/01/01 01:01:36;;;;;;;6.73;6.03;;;;;;;;;;6305388;28;20188;-80
2022/01/01 01:04:42;;;;;;;5.87;5.30;;;;;;;;;;6305150;28;20210;-79
2022/01/01 01:07:46;;;;;;;9.20;5.57;;;;;;;;;;6304383;28;20266;-79
2022/01/01 01:10:50;;;;;;;6.10;5.20;;;;;;;;;;6296585;28;20219;-80
2022/01/01 01:13:58;;;;;;;7.93;5.50;;;;;;;;;;6294203;28;20192;-80
2022/01/01 01:17:02;;;;;;;11.20;5.60;;;;;;;;;;6292821;28;20226;-80
2022/01/01 01:20:12;;;;;;;6.67;5.10;;;;;;;;;;6294637;28;20191;-80
2022/01/01 01:23:16;;;;;;;5.23;4.73;;;;;;;;;;6292994;28;20219;-80
2022/01/01 01:26:20;;;;;;;5.93;4.67;;;;;;;;;;6292595;28;20486;-79
2022/01/01 01:29:24;;;;;;;4.97;4.57;;;;;;;;;;6293203;28;20188;-79
2022/01/01 01:32:29;;;;;;;5.00;4.07;;;;;;;;;;6293767;28;20195;-79
2022/01/01 01:35:34;;;;;;;5.07;4.67;;;;;;;;;;6293568;28;20192;-79
2022/01/01 01:38:39;;;;;;;8.37;5.20;;;;;;;;;;6293919;28;20288;-79
2022/01/01 01:41:44;;;;;;;4.33;4.03;;;;;;;;;;6293017;28;20184;-79
2022/01/01 01:44:51;;;;;;;5.10;4.53;;;;;;;;;;6293855;28;20192;-79
2022/01/01 01:47:56;;;;;;;4.47;4.10;;;;;;;;;;6293067;28;20278;-79
2022/01/01 01:51:02;;;;;;;6.83;5.40;;;;;;;;;;6293515;28;20191;-79
2022/01/01 01:54:07;;;;;;;7.80;5.03;;;;;;;;;;6293807;28;20238;-79
2022/01/01 01:57:11;;;;;;;6.17;4.07;;;;;;;;;;6292477;28;20211;-79
2022/01/01 02:00:37;;;;;;;4.20;4.00;;;;;;;;;;6293587;28;20189;-79
2022/01/01 02:03:42;;;;;;;4.00;3.70;;;;;;;;;;6292471;28;20237;-79
2022/01/01 02:06:48;;;;;;;3.63;3.43;;;;;;;;;;6292455;28;20238;-80
2022/01/01 02:09:53;;;;;;;3.50;3.30;;;;;;;;;;6292483;28;20227;-79
2022/01/01 02:12:57;;;;;;;3.60;3.33;;;;;;;;;;6292354;28;20438;-79
2022/01/01 02:16:32;;;;;;;3.37;3.17;;;;;;;;;;6292600;28;20187;-80
2022/01/01 02:19:49;;;;;;;3.63;3.33;;;;;;;;;;6292991;28;20186;-79
2022/01/01 02:22:58;;;;;;;3.10;2.80;;;;;;;;;;6291953;28;20358;-79
2022/01/01 02:26:03;;;;;;;3.57;3.30;;;;;;;;;;6292634;28;20220;-79
2022/01/01 02:29:08;;;;;;;3.13;2.93;;;;;;;;;;6292169;28;20197;-79
2022/01/01 02:32:14;;;;;;;2.47;2.37;;;;;;;;;;6291882;28;20192;-79
2022/01/01 02:35:19;;;;;;;2.27;2.07;;;;;;;;;;6292448;28;20231;-79
2022/01/01 02:38:25;;;;;;;3.40;3.20;;;;;;;;;;6291162;28;20236;-79
2022/01/01 02:41:29;;;;;;;2.37;2.27;;;;;;;;;;6291430;28;20218;-79
2022/01/01 02:44:33;;;;;;;2.47;2.23;;;;;;;;;;6291269;28;20247;-79
2022/01/01 02:47:37;;;;;;;2.20;2.10;;;;;;;;;;6290042;28;20242;-79
2022/01/01 02:50:42;;;;;;;2.03;1.93;;;;;;;;;;6291227;28;20261;-79
2022/01/01 02:53:47;;;;;;;2.37;2.27;;;;;;;;;;6291546;28;20188;-79
2022/01/01 02:56:51;;;;;;;1.93;1.90;;;;;;;;;;6292248;28;20189;-79
2022/01/01 02:59:55;;;;;;;1.90;1.80;;;;;;;;;;6291745;28;20278;-79
2022/01/01 03:03:00;;;;;;;1.70;1.70;;;;;;;;;;6291729;28;20188;-79
2022/01/01 03:06:05;;;;;;;1.60;1.60;;;;;;;;;;6290697;28;20209;-79
2022/01/01 03:09:11;;;;;;;1.40;1.40;;;;;;;;;;6290882;28;20406;-79
2022/01/01 03:12:16;;;;;;;1.57;1.47;;;;;;;;;;6291773;28;20194;-80
2022/01/01 03:15:21;;;;;;;1.60;1.60;;;;;;;;;;6291561;28;20191;-79
2022/01/01 03:18:25;;;;;;;1.77;1.77;;;;;;;;;;6291119;28;20265;-79
2022/01/01 03:21:29;;;;;;;1.57;1.57;;;;;;;;;;6290946;28;20190;-79
2022/01/01 03:24:35;;;;;;;2.10;1.70;;;;;;;;;;6291142;28;20188;-79
2022/01/01 03:27:39;;;;;;;1.60;1.60;;;;;;;;;;6290521;28;20478;-79
2022/01/01 03:30:43;;;;;;;2.47;1.43;;;;;;;;;;6290479;28;20187;-79
2022/01/01 03:33:48;;;;;;;2.10;1.90;;;;;;;;;;6289342;28;20193;-79
2022/01/01 03:36:52;;;;;;;1.40;1.40;;;;;;;;;;6290848;28;20184;-79
2022/01/01 03:39:57;;;;;;;1.50;1.50;;;;;;;;;;6290052;28;20214;-79
2022/01/01 03:43:01;;;;;;;1.40;1.40;;;;;;;;;;6289044;28;20467;-79
2022/01/01 03:46:06;;;;;;;1.33;1.33;;;;;;;;;;6289725;28;20247;-79
2022/01/01 03:49:11;;;;;;;1.30;1.30;;;;;;;;;;6289819;28;20191;-79
2022/01/01 03:52:15;;;;;;;1.40;1.40;;;;;;;;;;6290029;28;20187;-79
2022/01/01 03:55:21;;;;;;;1.20;1.20;;;;;;;;;;6290394;28;20239;-79
2022/01/01 03:58:25;;;;;;;1.30;1.30;;;;;;;;;;6289431;28;20544;-79
2022/01/01 04:01:29;;;;;;;1.00;1.00;;;;;;;;;;6289467;28;20202;-79
2022/01/01 04:04:33;;;;;;;1.30;1.30;;;;;;;;;;6290110;28;20192;-79
2022/01/01 04:07:38;;;;;;;1.30;1.30;;;;;;;;;;6289052;28;20187;-79
2022/01/01 04:10:43;;;;;;;1.23;1.23;;;;;;;;;;6289386;28;20298;-79
2022/01/01 04:13:47;;;;;;;1.90;1.40;;;;;;;;;;6289123;28;20306;-79
2022/01/01 04:16:53;;;;;;;1.37;1.27;;;;;;;;;;6288773;28;20492;-79
2022/01/01 04:19:57;;;;;;;1.30;1.30;;;;;;;;;;6290258;28;20221;-79
2022/01/01 04:23:01;;;;;;;1.80;1.70;;;;;;;;;;6289229;28;20187;-81
2022/01/01 04:26:08;;;;;;;1.23;1.23;;;;;;;;;;6290680;28;20188;-79
2022/01/01 04:29:13;;;;;;;1.50;1.33;;;;;;;;;;6290615;28;20222;-79
2022/01/01 04:32:18;;;;;;;1.40;1.40;;;;;;;;;;6290101;28;20193;-79
2022/01/01 04:35:22;;;;;;;1.40;1.30;;;;;;;;;;6290156;28;20226;-79
2022/01/01 04:38:37;;;;;;;1.30;1.20;;;;;;;;;;6289966;28;20221;-79
2022/01/01 04:41:42;;;;;;;1.40;1.40;;;;;;;;;;6289628;28;20254;-79
2022/01/01 04:44:46;;;;;;;1.40;1.30;;;;;;;;;;6289547;28;20194;-79
2022/01/01 04:47:50;;;;;;;1.10;1.10;;;;;;;;;;6289832;28;20234;-79
2022/01/01 04:50:54;;;;;;;1.70;1.30;;;;;;;;;;6289891;28;20195;-79
2022/01/01 04:54:01;;;;;;;1.20;1.20;;;;;;;;;;6289903;28;20187;-79
2022/01/01 04:57:07;;;;;;;1.00;1.00;;;;;;;;;;6289301;28;20253;-79
2022/01/01 05:00:12;;;;;;;3.00;1.03;;;;;;;;;;6289650;28;20219;-79
2022/01/01 05:03:17;;;;;;;1.10;1.10;;;;;;;;;;6293909;28;20198;-81
2022/01/01 05:06:21;;;;;;;1.00;1.00;;;;;;;;;;6294787;28;20188;-79
2022/01/01 05:09:27;;;;;;;1.43;1.20;;;;;;;;;;6293636;28;20251;-79
2022/01/01 05:12:33;;;;;;;1.10;1.10;;;;;;;;;;6293605;28;20536;-79
2022/01/01 05:15:37;;;;;;;1.10;1.10;;;;;;;;;;6294445;28;20193;-81
2022/01/01 05:18:41;;;;;;;1.20;1.20;;;;;;;;;;6294123;28;20280;-79
2022/01/01 05:21:45;;;;;;;1.00;1.00;;;;;;;;;;6294144;28;20222;-79
2022/01/01 05:24:49;;;;;;;0.90;0.90;;;;;;;;;;6293882;28;20194;-78
2022/01/01 05:27:55;;;;;;;0.90;0.90;;;;;;;;;;6294366;28;20193;-78
2022/01/01 05:30:59;;;;;;;1.00;1.00;;;;;;;;;;6293367;28;20447;-78
2022/01/01 05:34:04;;;;;;;1.53;1.10;;;;;;;;;;6294683;28;20197;-79
2022/01/01 05:37:11;;;;;;;1.00;1.00;;;;;;;;;;6295086;28;20251;-79
2022/01/01 05:40:16;;;;;;;1.10;1.10;;;;;;;;;;6294972;28;20213;-79
2022/01/01 05:43:22;;;;;;;1.30;1.30;;;;;;;;;;6295178;28;20213;-79
2022/01/01 05:46:29;;;;;;;1.70;1.20;;;;;;;;;;6295756;28;20237;-80
2022/01/01 05:49:33;;;;;;;2.87;1.27;;;;;;;;;;6295650;28;20473;-79
2022/01/01 05:52:37;;;;;;;1.03;1.03;;;;;;;;;;6295593;28;20185;-79
2022/01/01 05:55:41;;;;;;;1.10;1.10;;;;;;;;;;6292990;28;20190;-79
2022/01/01 05:58:47;;;;;;;0.93;0.93;;;;;;;;;;6292716;28;20191;-79
2022/01/01 06:01:51;;;;;;;1.80;1.23;;;;;;;;;;6291792;28;20224;-79
2022/01/01 06:04:55;;;;;;;1.20;1.20;;;;;;;;;;6291609;28;20186;-79
2022/01/01 06:08:00;;;;;;;1.10;1.10;;;;;;;;;;6292042;28;20498;-79
2022/01/01 06:11:04;;;;;;;1.20;1.20;;;;;;;;;;6292979;28;20187;-79
2022/01/01 06:14:09;;;;;;;1.00;1.00;;;;;;;;;;6292877;28;20233;-79
2022/01/01 06:17:14;;;;;;;1.33;1.33;;;;;;;;;;6292745;28;20195;-79
2022/01/01 06:20:18;;;;;;;1.17;1.17;;;;;;;;;;6292948;28;20214;-79
2022/01/01 06:23:39;;;;;;;1.00;1.00;;;;;;;;;;6293332;28;20281;-79
2022/01/01 06:26:43;;;;;;;1.23;1.23;;;;;;;;;;6293256;28;20257;-79
2022/01/01 06:29:50;;;;;;;1.17;1.17;;;;;;;;;;6293010;28;20198;-79
2022/01/01 06:32:54;;;;;;;1.40;1.30;;;;;;;;;;6292720;28;20487;-79
2022/01/01 06:35:58;;;;;;;1.03;1.00;;;;;;;;;;6293267;28;20226;-79
2022/01/01 06:39:02;;;;;;;2.10;1.30;;;;;;;;;;6292872;28;20248;-81
2022/01/01 06:42:08;;;;;;;1.10;1.10;;;;;;;;;;6292058;28;20185;-78
2022/01/01 06:45:13;;;;;;;1.30;1.30;;;;;;;;;;6292499;28;20236;-79
2022/01/01 06:48:18;;;;;;;1.27;1.27;;;;;;;;;;6292788;28;20270;-78
2022/01/01 06:51:22;;;;;;;1.20;1.20;;;;;;;;;;6292005;28;20258;-79
2022/01/01 06:54:28;;;;;;;1.60;1.03;;;;;;;;;;6291014;28;20388;-79
2022/01/01 06:57:32;;;;;;;1.10;1.10;;;;;;;;;;6292123;28;20186;-78
2022/01/01 07:00:39;;;;;;;1.20;1.20;;;;;;;;;;6291023;28;20524;-79
2022/01/01 07:03:44;;;;;;;1.20;1.20;;;;;;;;;;6291672;28;20188;-78
2022/01/01 07:06:48;;;;;;;1.40;1.30;;;;;;;;;;6290628;28;20505;-78
2022/01/01 07:09:52;;;;;;;1.00;1.00;;;;;;;;;;6291680;28;20544;-79
2022/01/01 07:12:57;;;;;;;1.30;1.30;;;;;;;;;;6291682;28;20206;-79
2022/01/01 07:16:02;;;;;;;1.40;1.40;;;;;;;;;;6291721;28;20185;-78
2022/01/01 07:19:06;;;;;;;1.23;1.23;;;;;;;;;;6290961;28;20284;-79
2022/01/01 07:22:14;;;;;;;2.10;1.10;;;;;;;;;;6293066;28;20209;-81
2022/01/01 07:25:19;;;;;;;2.13;1.23;;;;;;;;;;6294094;28;20187;-80
2022/01/01 07:28:23;;;;;;;1.40;1.40;;;;;;;;;;6293752;28;20185;-79
2022/01/01 07:31:29;;;;;;;1.17;1.17;;;;;;;;;;6293024;28;20212;-79
2022/01/01 07:34:34;;;;;;;1.30;1.30;;;;;;;;;;6293645;28;20200;-80
2022/01/01 07:37:38;;;;;;;1.30;1.30;;;;;;;;;;6294203;28;20210;-80
2022/01/01 07:40:42;;;;;;;1.20;1.20;;;;;;;;;;6294513;28;20208;-80
2022/01/01 07:43:47;;;;;;;1.20;1.20;;;;;;;;;;6292127;28;20200;-78
2022/01/01 07:46:52;;;;;;;1.30;1.30;;;;;;;;;;6293380;28;20382;-78
2022/01/01 07:49:57;;;;;;;1.60;1.40;;;;;;;;;;6294423;28;20208;-79
2022/01/01 07:53:01;;;;;;;1.10;1.10;;;;;;;;;;6291285;28;20217;-78
2022/01/01 07:56:06;;;;;;;1.10;1.10;;;;;;;;;;6291515;28;20194;-79
2022/01/01 07:59:10;;;;;;;1.10;1.10;;;;;;;;;;6290178;28;20186;-79
2022/01/01 08:02:16;;;;;;;0.97;0.97;;;;;;;;;;6288902;28;20519;-79
2022/01/01 08:05:21;;;;;;;1.23;1.23;;;;;;;;;;6289073;28;20194;-79
2022/01/01 08:08:25;;;;;;;3.80;1.20;;;;;;;;;;6289940;28;20190;-79
2022/01/01 08:11:29;;;;;;;1.00;1.00;;;;;;;;;;6289834;28;20258;-79
2022/01/01 08:14:34;;;;;;;1.10;1.10;;;;;;;;;;6289789;28;20216;-79
2022/01/01 08:17:39;;;;;;;1.00;1.00;;;;;;;;;;6289708;28;20207;-78
2022/01/01 08:20:43;;;;;;;1.10;1.10;;;;;;;;;;6290007;28;20223;-79
2022/01/01 08:23:48;;;;;;;1.23;1.23;;;;;;;;;;6289911;28;20244;-79
2022/01/01 08:26:52;;;;;;;1.17;1.17;;;;;;;;;;6289064;28;20491;-79
2022/01/01 08:29:56;;;;;;;1.30;1.30;;;;;;;;;;6288502;28;20207;-79
2022/01/01 08:33:02;;;;;;;1.20;1.20;;;;;;;;;;6289143;28;20192;-79
2022/01/01 08:36:08;;;;;;;1.10;1.10;;;;;;;;;;6291158;28;20185;-79
2022/01/01 08:39:13;;;;;;;1.20;1.20;;;;;;;;;;6295624;28;20186;-79
2022/01/01 08:42:17;;;;;;;1.00;1.00;;;;;;;;;;6294566;28;20390;-79
2022/01/01 08:45:22;;;;;;;1.30;1.30;;;;;;;;;;6294714;28;20200;-79
2022/01/01 08:48:28;;;;;;;1.30;1.30;;;;;;;;;;6293584;28;20231;-79
2022/01/01 08:51:34;;;;;;;1.10;1.10;;;;;;;;;;6294679;28;20243;-79
2022/01/01 08:54:39;;;;;;;1.03;1.03;;;;;;;;;;6296314;28;20186;-79
2022/01/01 08:57:43;;;;;;;1.10;1.10;;;;;;;;;;6294344;28;20194;-79
2022/01/01 09:00:48;;;;;;;1.23;1.23;;;;;;;;;;6295065;28;20214;-79
2022/01/01 09:03:54;;;;;;;1.70;1.07;;;;;;;;;;6295401;28;20192;-79
2022/01/01 09:06:58;;;;;;;1.43;1.43;;;;;;;;;;6295492;28;20186;-79
2022/01/01 09:10:04;;;;;;;1.27;1.27;;;;;;;;;;6294952;28;20244;-79
2022/01/01 09:13:10;;;;;;;1.40;1.40;;;;;;;;;;6295733;28;20189;-79
2022/01/01 09:16:16;;;;;;;1.30;1.30;;;;;;;;;;6294606;28;20186;-79
2022/01/01 09:19:22;;;;;;;1.27;1.27;;;;;;;;;;6294726;28;20192;-79
2022/01/01 09:22:26;;;;;;;1.30;1.30;;;;;;;;;;6294290;28;20213;-79
2022/01/01 09:25:31;;;;;;;1.33;1.33;;;;;;;;;;6293528;28;20193;-79
2022/01/01 09:28:35;;;;;;;1.20;1.20;;;;;;;;;;6293879;28;20360;-79
2022/01/01 09:31:40;;;;;;;1.40;1.40;;;;;;;;;;6293825;28;20555;-79
2022/01/01 09:34:46;;;;;;;1.53;1.53;;;;;;;;;;6294981;28;20191;-79
2022/01/01 09:37:50;;;;;;;1.60;1.60;;;;;;;;;;6294300;28;20448;-79
2022/01/01 09:40:56;;;;;;;1.90;1.53;;;;;;;;;;6294083;28;20197;-79
2022/01/01 09:44:02;;;;;;;1.23;1.23;;;;;;;;;;6294620;28;20188;-79
2022/01/01 09:47:06;;;;;;;1.30;1.30;;;;;;;;;;6293556;28;20307;-79
2022/01/01 09:50:12;;;;;;;1.20;1.20;;;;;;;;;;6292995;28;20208;-79
2022/01/01 09:53:17;;;;;;;1.30;1.30;;;;;;;;;;6295343;28;20254;-79
2022/01/01 09:56:21;;;;;;;1.40;1.37;;;;;;;;;;6294894;28;20192;-81
2022/01/01 09:59:26;;;;;;;1.10;1.10;;;;;;;;;;6293364;28;20185;-80
2022/01/01 10:02:30;;;;;;;1.47;1.47;;;;;;;;;;6293328;28;20282;-80
2022/01/01 10:05:35;;;;;;;1.40;1.40;;;;;;;;;;6293260;28;20219;-78
2022/01/01 10:08:40;;;;;;;1.23;1.23;;;;;;;;;;6293270;28;20191;-81
2022/01/01 10:11:44;;;;;;;1.10;1.10;;;;;;;;;;6295082;28;20200;-80
2022/01/01 10:14:49;;;;;;;1.40;1.40;;;;;;;;;;6293612;28;20256;-81
2022/01/01 10:17:54;;;;;;;0.93;0.93;;;;;;;;;;6293973;28;20191;-81
2022/01/01 10:21:08;;;;;;;1.23;1.23;;;;;;;;;;6292549;28;20292;-81
2022/01/01 10:24:14;;;;;;;2.40;1.37;;;;;;;;;;6294531;28;20219;-80
2022/01/01 10:30:40;;;;;;;1.40;1.40;;;;;;;;;;6292286;28;20194;-77
2022/01/01 10:33:45;;;;;;;1.33;1.33;;;;;;;;;;6291070;28;20223;-79
2022/01/01 10:36:53;;;;;;;1.57;1.57;;;;;;;;;;6291217;28;20185;-78
2022/01/01 10:39:58;;;;;;;1.40;1.40;;;;;;;;;;6290734;28;20209;-78
2022/01/01 10:43:03;;;;;;;1.30;1.30;;;;;;;;;;6291249;28;20384;-78
2022/01/01 10:46:11;;;;;;;1.20;1.20;;;;;;;;;;6290552;28;20200;-78
2022/01/01 10:49:30;;;;;;;1.77;1.67;;;;;;;;;;6290027;28;20193;-79
2022/01/01 10:52:36;;;;;;;1.40;1.40;;;;;;;;;;6291650;28;20189;-79
2022/01/01 10:55:42;;;;;;;1.63;1.63;;;;;;;;;;6290604;28;20247;-77
2022/01/01 10:58:47;;;;;;;1.47;1.47;;;;;;;;;;6290301;28;20217;-78
2022/01/01 11:01:57;;;;;;;1.30;1.30;;;;;;;;;;6289882;28;20185;-79
2022/01/01 11:05:03;;;;;;;1.50;1.40;;;;;;;;;;6289838;28;20192;-79
2022/01/01 11:08:10;;;;;;;1.63;1.63;;;;;;;;;;6289966;28;20476;-79
2022/01/01 11:11:15;;;;;;;2.90;1.60;;;;;;;;;;6290065;28;20191;-78
2022/01/01 11:14:20;;;;;;;1.20;1.20;;;;;;;;;;6289320;28;20198;-79
2022/01/01 11:17:25;;;;;;;2.80;1.57;;;;;;;;;;6287393;28;20375;-76
2022/01/01 11:20:33;;;;;;;1.37;1.37;;;;;;;;;;6288490;28;20232;-77
2022/01/01 11:23:40;;;;;;;1.23;1.23;;;;;;;;;;6287873;28;20214;-77
2022/01/01 11:26:45;;;;;;;1.30;1.30;;;;;;;;;;6289861;28;20186;-80
2022/01/01 11:29:51;;;;;;;4.83;1.50;;;;;;;;;;6290929;28;20256;-78
2022/01/01 11:32:59;;;;;;;1.57;1.43;;;;;;;;;;6289648;28;20190;-78
2022/01/01 11:36:03;;;;;;;1.53;1.53;;;;;;;;;;6290442;28;20196;-78
2022/01/01 11:39:14;;;;;;;1.70;1.50;;;;;;;;;;6290172;28;20204;-84
2022/01/01 11:42:19;;;;;;;1.50;1.50;;;;;;;;;;6291539;28;20258;-82
2022/01/01 11:45:44;;;;;;;1.30;1.30;;;;;;;;;;6290720;28;20280;-81
2022/01/01 11:48:52;;;;;;;1.33;1.33;;;;;;;;;;6290500;28;20305;-81
2022/01/01 11:51:57;;;;;;;3.00;1.80;;;;;;;;;;6290701;28;20211;-81
2022/01/01 11:55:06;;;;;;;1.30;1.30;;;;;;;;;;6289677;28;20268;-80
2022/01/01 11:58:12;;;;;;;1.60;1.60;;;;;;;;;;6289890;28;20191;-80
2022/01/01 12:01:18;;;;;;;1.43;1.43;;;;;;;;;;6287826;28;20192;-79
2022/01/01 12:04:23;;;;;;;1.20;1.20;;;;;;;;;;6290520;28;20306;-80
2022/01/01 12:07:30;;;;;;;1.40;1.40;;;;;;;;;;6291456;28;20192;-80
2022/01/01 12:10:37;;;;;;;1.60;1.50;;;;;;;;;;6291766;28;20188;-81
2022/01/01 12:13:41;;;;;;;1.63;1.50;;;;;;;;;;6291237;28;20227;-80
2022/01/01 12:16:49;;;;;;;1.57;1.47;;;;;;;;;;6290072;28;20223;-82
2022/01/01 12:19:55;;;;;;;1.40;1.40;;;;;;;;;;6292034;28;20193;-81
2022/01/01 12:23:03;;;;;;;2.20;1.70;;;;;;;;;;6322297;28;20265;-81
2022/01/01 12:26:09;;;;;;;1.40;1.40;;;;;;;;;;6289623;28;20249;-81
2022/01/01 12:29:14;;;;;;;1.60;1.60;;;;;;;;;;6289357;28;20248;-80
2022/01/01 12:32:36;;;;;;;1.37;1.37;;;;;;;;;;6289813;28;20230;-80
2022/01/01 12:35:44;;;;;;;1.33;1.33;;;;;;;;;;6288459;28;20184;-80
2022/01/01 12:38:49;;;;;;;1.60;1.60;;;;;;;;;;6288524;28;20184;-79
2022/01/01 12:41:56;;;;;;;1.50;1.50;;;;;;;;;;6287423;28;20194;-77
2022/01/01 12:45:04;;;;;;;1.63;1.63;;;;;;;;;;6288411;28;20272;-79
2022/01/01 12:48:11;;;;;;;1.70;1.60;;;;;;;;;;6289346;28;20272;-78
2022/01/01 12:51:18;;;;;;;1.97;1.87;;;;;;;;;;6288710;28;20185;-79
2022/01/01 12:54:28;;;;;;;1.80;1.70;;;;;;;;;;6289715;28;20193;-81
2022/01/01 12:57:34;;;;;;;1.67;1.57;;;;;;;;;;6290818;28;20216;-85
2022/01/01 13:00:40;;;;;;;2.07;1.50;;;;;;;;;;6290425;28;20192;-86
2022/01/01 13:03:47;;;;;;;1.30;1.13;;;;;;;;;;6291171;28;20213;-79
2022/01/01 13:06:54;;;;;;;1.40;1.40;;;;;;;;;;6288655;28;20230;-80
2022/01/01 13:10:01;;;;;;;2.67;1.40;;;;;;;;;;6289443;28;20228;-80
2022/01/01 13:13:07;;;;;;;2.03;1.80;;;;;;;;;;6289954;28;20192;-79
2022/01/01 13:16:13;;;;;;;1.53;1.43;;;;;;;;;;6288951;28;20221;-80
2022/01/01 13:19:17;;;;;;;1.70;1.70;;;;;;;;;;6288322;28;20189;-79
2022/01/01 13:22:30;;;;;;;1.80;1.80;;;;;;;;;;6287120;28;20279;-79
2022/01/01 13:25:34;;;;;;;1.53;1.47;;;;;;;;;;6292291;28;20513;-80
2022/01/01 13:28:41;;;;;;;1.40;1.40;;;;;;;;;;6293756;28;20191;-83
2022/01/01 13:31:45;;;;;;;1.60;1.60;;;;;;;;;;6293223;28;20232;-82
2022/01/01 13:34:52;;;;;;;1.40;1.40;;;;;;;;;;6291659;28;20204;-83
2022/01/01 13:37:56;;;;;;;2.53;1.60;;;;;;;;;;6294361;28;20192;-83
2022/01/01 13:41:02;;;;;;;1.30;1.30;;;;;;;;;;6291754;28;20201;-80
2022/01/01 13:44:22;;;;;;;1.50;1.50;;;;;;;;;;6291682;28;20212;-80
2022/01/01 13:47:31;;;;;;;1.60;1.40;;;;;;;;;;6292004;28;20261;-80
2022/01/01 13:50:40;;;;;;;1.70;1.60;;;;;;;;;;6291398;28;20202;-79
2022/01/01 13:53:44;;;;;;;1.30;1.30;;;;;;;;;;6295772;28;20197;-80
2022/01/01 13:56:51;;;;;;;1.43;1.33;;;;;;;;;;6294063;28;20213;-81
2022/01/01 13:59:58;;;;;;;1.97;1.97;;;;;;;;;;6293846;28;20216;-80
2022/01/01 14:03:06;;;;;;;1.50;1.50;;;;;;;;;;6294578;28;20189;-80
2022/01/01 14:06:11;;;;;;;1.60;1.50;;;;;;;;;;6294098;28;20246;-81
2022/01/01 14:09:15;;;;;;;1.97;1.97;;;;;;;;;;6294170;28;20187;-80
2022/01/01 14:12:20;;;;;;;1.47;1.47;;;;;;;;;;6293931;28;20191;-80
2022/01/01 14:15:25;;;;;;;2.43;1.50;;;;;;;;;;6293632;28;20198;-80
2022/01/01 14:18:31;;;;;;;1.60;1.50;;;;;;;;;;6293265;28;20189;-81
2022/01/01 14:21:35;;;;;;;1.93;1.83;;;;;;;;;;6294463;28;20186;-80
2022/01/01 14:24:51;;;;;;;1.63;1.53;;;;;;;;;;6293856;28;20213;-80
2022/01/01 14:28:00;;;;;;;1.50;1.50;;;;;;;;;;6294766;28;20218;-80
2022/01/01 14:31:06;;;;;;;3.30;1.30;;;;;;;;;;6294112;28;20480;-80
2022/01/01 14:34:13;;;;;;;1.60;1.60;;;;;;;;;;6293748;28;20225;-80
2022/01/01 14:37:17;;;;;;;1.30;1.30;;;;;;;;;;6294340;28;20193;-80
2022/01/01 14:40:22;;;;;;;1.40;1.40;;;;;;;;;;6292197;28;20576;-80
2022/01/01 14:43:27;;;;;;;2.37;1.40;;;;;;;;;;6292337;28;20186;-78
2022/01/01 14:46:36;;;;;;;1.60;1.60;;;;;;;;;;6293937;28;20237;-79
2022/01/01 14:49:44;;;;;;;1.77;1.77;;;;;;;;;;6292537;28;20224;-79
2022/01/01 14:52:53;;;;;;;1.80;1.80;;;;;;;;;;6290726;28;20187;-80
2022/01/01 14:56:03;;;;;;;1.60;1.60;;;;;;;;;;6291504;28;20211;-80
2022/01/01 14:59:09;;;;;;;1.40;1.40;;;;;;;;;;6290399;28;20450;-80
2022/01/01 15:02:17;;;;;;;1.60;1.60;;;;;;;;;;6291804;28;20234;-80
2022/01/01 15:05:23;;;;;;;1.40;1.40;;;;;;;;;;6292438;28;20276;-79
2022/01/01 15:08:30;;;;;;;1.70;1.70;;;;;;;;;;6290661;28;20358;-81
2022/01/01 15:11:34;;;;;;;1.20;1.20;;;;;;;;;;6291146;28;20217;-80
2022/01/01 15:14:40;;;;;;;1.60;1.60;;;;;;;;;;6290579;28;20256;-80
2022/01/01 15:17:45;;;;;;;1.67;1.67;;;;;;;;;;6290164;28;20185;-80
2022/01/01 15:20:52;;;;;;;1.47;1.47;;;;;;;;;;6289320;28;20261;-79
2022/01/01 15:23:58;;;;;;;1.50;1.50;;;;;;;;;;6289196;28;20240;-80
2022/01/01 15:27:05;;;;;;;1.43;1.40;;;;;;;;;;6287364;28;20506;-77
2022/01/01 15:30:25;;;;;;;1.80;1.70;;;;;;;;;;6288964;28;20192;-77
2022/01/01 15:33:33;;;;;;;1.57;1.57;;;;;;;;;;6289089;28;20253;-78
2022/01/01 15:36:53;;;;;;;1.40;1.40;;;;;;;;;;6287658;28;20268;-78
2022/01/01 15:40:03;;;;;;;1.53;1.53;;;;;;;;;;6289612;28;20248;-77
2022/01/01 15:43:10;;;;;;;1.53;1.53;;;;;;;;;;6288004;28;20387;-78
2022/01/01 15:46:14;;;;;;;4.13;1.80;;;;;;;;;;6287607;28;20243;-78
2022/01/01 15:49:21;;;;;;;1.83;1.83;;;;;;;;;;6287404;28;20186;-78
2022/01/01 15:52:26;;;;;;;1.83;1.80;;;;;;;;;;6287936;28;20374;-79
2022/01/01 15:55:31;;;;;;;3.00;1.87;;;;;;;;;;6289692;28;20191;-79
2022/01/01 15:58:37;;;;;;;1.77;1.67;;;;;;;;;;6289883;28;20186;-78
2022/01/01 16:01:43;;;;;;;1.70;1.70;;;;;;;;;;6289793;28;20226;-79
2022/01/01 16:04:58;;;;;;;1.43;1.43;;;;;;;;;;6288450;28;20474;-79
2022/01/01 16:08:09;;;;;;;2.47;1.90;;;;;;;;;;6289961;28;20194;-80
2022/01/01 16:11:15;;;;;;;1.90;1.80;;;;;;;;;;6289468;28;20187;-80
2022/01/01 16:14:20;;;;;;;1.70;1.60;;;;;;;;;;6289897;28;20195;-80
2022/01/01 16:17:25;;;;;;;1.73;1.73;;;;;;;;;;6289976;28;20197;-81
2022/01/01 16:20:31;;;;;;;1.73;1.63;;;;;;;;;;6288302;28;20248;-80
2022/01/01 16:23:36;;;;;;;1.97;1.80;;;;;;;;;;6289925;28;20187;-81
2022/01/01 16:26:40;;;;;;;2.10;1.87;;;;;;;;;;6288979;28;20517;-81
2022/01/01 16:29:44;;;;;;;2.17;2.10;;;;;;;;;;6288143;28;20317;-81
2022/01/01 16:32:49;;;;;;;1.70;1.70;;;;;;;;;;6289659;28;20197;-81
2022/01/01 16:35:55;;;;;;;1.63;1.63;;;;;;;;;;6289962;28;20189;-82
2022/01/01 16:39:02;;;;;;;2.47;2.27;;;;;;;;;;6288459;28;20193;-81
2022/01/01 16:42:09;;;;;;;2.00;1.90;;;;;;;;;;6288940;28;20184;-82
2022/01/01 16:45:14;;;;;;;1.97;1.87;;;;;;;;;;6288372;28;20406;-81
2022/01/01 16:48:21;;;;;;;2.10;1.90;;;;;;;;;;6287983;28;20235;-81
2022/01/01 16:51:29;;;;;;;1.87;1.80;;;;;;;;;;6289332;28;20251;-81
2022/01/01 16:54:34;;;;;;;2.53;2.43;;;;;;;;;;6289194;28;20223;-81
2022/01/01 16:57:39;;;;;;;4.10;1.80;;;;;;;;;;6290722;28;20197;-81
2022/01/01 17:00:46;;;;;;;2.07;1.97;;;;;;;;;;6294706;28;20195;-81
2022/01/01 17:03:59;;;;;;;2.47;2.27;;;;;;;;;;6294904;28;20193;-82
2022/01/01 17:07:06;;;;;;;2.17;2.17;;;;;;;;;;6293421;28;20224;-81
2022/01/01 17:10:15;;;;;;;2.43;2.33;;;;;;;;;;6294748;28;20417;-82
2022/01/01 17:13:21;;;;;;;2.53;2.33;;;;;;;;;;6294818;28;20192;-81
2022/01/01 17:16:30;;;;;;;2.07;2.07;;;;;;;;;;6302336;28;20190;-82
2022/01/01 17:19:42;;;;;;;3.37;2.50;;;;;;;;;;6303066;28;20185;-81
2022/01/01 17:22:55;;;;;;;2.70;2.10;;;;;;;;;;6304265;28;20193;-82
2022/01/01 17:26:07;;;;;;;2.40;2.30;;;;;;;;;;6302675;28;20491;-79
2022/01/01 17:29:12;;;;;;;2.40;2.30;;;;;;;;;;6297501;28;20190;-78
2022/01/01 17:32:17;;;;;;;2.83;2.60;;;;;;;;;;6293685;28;20185;-81
2022/01/01 17:35:36;;;;;;;4.30;2.60;;;;;;;;;;6294405;28;20185;-79
2022/01/01 17:42:17;;;;;;;3.00;2.73;;;;;;;;;;6291755;28;20185;-78
2022/01/01 17:45:25;;;;;;;2.40;2.30;;;;;;;;;;6291466;28;20234;-80
2022/01/01 17:48:35;;;;;;;2.30;2.20;;;;;;;;;;6291843;28;20307;-78
2022/01/01 17:51:42;;;;;;;3.73;2.63;;;;;;;;;;6292801;28;20185;-78
2022/01/01 17:54:49;;;;;;;2.40;2.30;;;;;;;;;;6291015;28;20187;-76
2022/01/01 17:57:57;;;;;;;2.57;2.57;;;;;;;;;;6323121;28;20211;-76
2022/01/01 18:01:03;;;;;;;2.83;2.40;;;;;;;;;;6290540;28;20191;-77
2022/01/01 18:04:13;;;;;;;3.23;2.70;;;;;;;;;;6290818;28;20252;-77
2022/01/01 18:07:20;;;;;;;5.00;3.60;;;;;;;;;;6290983;28;20233;-80
2022/01/01 18:10:31;;;;;;;3.00;2.90;;;;;;;;;;6291454;28;20185;-78
2022/01/01 18:13:40;;;;;;;2.77;2.67;;;;;;;;;;6291096;28;20390;-78
2022/01/01 18:16:45;;;;;;;3.43;2.70;;;;;;;;;;6291123;28;20264;-80
2022/01/01 18:19:50;;;;;;;3.40;3.17;;;;;;;;;;6289991;28;20486;-78
2022/01/01 18:22:55;;;;;;;2.50;2.40;;;;;;;;;;6291432;28;20194;-79
2022/01/01 18:26:03;;;;;;;2.33;2.23;;;;;;;;;;6289964;28;20213;-80
2022/01/01 18:29:09;;;;;;;2.97;2.80;;;;;;;;;;6290715;28;20257;-78
2022/01/01 18:32:14;;;;;;;2.87;2.77;;;;;;;;;;6290257;28;20253;-77
2022/01/01 18:35:25;;;;;;;2.60;2.50;;;;;;;;;;6288578;28;20188;-76
2022/01/01 18:38:31;;;;;;;2.73;2.60;;;;;;;;;;6288765;28;20396;-77
2022/01/01 18:41:36;;;;;;;2.50;2.40;;;;;;;;;;6288837;28;20548;-77
2022/01/01 18:44:42;;;;;;;3.57;3.27;;;;;;;;;;6290307;28;20247;-77